sensor_id;sensor_type;location;lat;lon;timestamp;P1;durP1;ratioP1;P2;durP2;ratioP2
55423;SDS011;41294;42.666;23.350;2022-12-22T00:00:23;80.60;;;38.70;;
55423;SDS011;41294;42.666;23.350;2022-12-22T00:03:11;83.77;;;38.00;;
55423;SDS011;41294;42.666;23.350;2022-12-22T00:05:56;72.37;;;38.40;;
55423;SDS011;41294;42.666;23.350;2022-12-22T00:08:40;71.87;;;36.67;;
55423;SDS011;41294;42.666;23.350;2022-12-22T00:11:24;81.10;;;39.80;;
55423;SDS011;41294;42.666;23.350;2022-12-22T00:14:08;69.07;;;38.83;;
55423;SDS011;41294;42.666;23.350;2022-12-22T00:16:53;68.83;;;37.33;;
55423;SDS011;41294;42.666;23.350;2022-12-22T00:19:39;92.20;;;38.47;;
55423;SDS011;41294;42.666;23.350;2022-12-22T00:22:23;59.97;;;35.90;;
55423;SDS011;41294;42.666;23.350;2022-12-22T00:25:11;66.30;;;37.20;;
55423;SDS011;41294;42.666;23.350;2022-12-22T00:27:56;84.00;;;38.43;;
55423;SDS011;41294;42.666;23.350;2022-12-22T00:30:40;79.97;;;38.83;;
55423;SDS011;41294;42.666;23.350;2022-12-22T00:33:24;72.23;;;37.97;;
55423;SDS011;41294;42.666;23.350;2022-12-22T00:36:09;67.43;;;36.27;;
55423;SDS011;41294;42.666;23.350;2022-12-22T00:38:55;67.43;;;35.57;;
55423;SDS011;41294;42.666;23.350;2022-12-22T00:41:39;83.50;;;38.67;;
55423;SDS011;41294;42.666;23.350;2022-12-22T00:44:23;72.63;;;37.87;;
55423;SDS011;41294;42.666;23.350;2022-12-22T00:47:14;73.03;;;36.97;;
55423;SDS011;41294;42.666;23.350;2022-12-22T00:50:07;65.57;;;35.33;;
55423;SDS011;41294;42.666;23.350;2022-12-22T00:52:52;75.33;;;36.90;;
55423;SDS011;41294;42.666;23.350;2022-12-22T00:55:36;72.27;;;36.70;;
55423;SDS011;41294;42.666;23.350;2022-12-22T00:58:20;70.83;;;36.17;;
55423;SDS011;41294;42.666;23.350;2022-12-22T01:01:04;65.97;;;35.27;;
55423;SDS011;41294;42.666;23.350;2022-12-22T01:03:48;65.97;;;34.40;;
55423;SDS011;41294;42.666;23.350;2022-12-22T01:06:33;74.23;;;35.43;;
55423;SDS011;41294;42.666;23.350;2022-12-22T01:09:19;67.33;;;37.17;;
55423;SDS011;41294;42.666;23.350;2022-12-22T01:12:08;68.93;;;34.57;;
55423;SDS011;41294;42.666;23.350;2022-12-22T01:14:56;65.73;;;35.00;;
55423;SDS011;41294;42.666;23.350;2022-12-22T01:17:40;67.17;;;34.77;;
55423;SDS011;41294;42.666;23.350;2022-12-22T01:20:24;74.13;;;35.37;;
55423;SDS011;41294;42.666;23.350;2022-12-22T01:23:09;61.40;;;33.37;;
55423;SDS011;41294;42.666;23.350;2022-12-22T01:25:53;68.07;;;33.50;;
55423;SDS011;41294;42.666;23.350;2022-12-22T01:28:37;65.87;;;34.17;;
55423;SDS011;41294;42.666;23.350;2022-12-22T01:31:30;66.57;;;35.83;;
55423;SDS011;41294;42.666;23.350;2022-12-22T01:34:15;70.67;;;36.83;;
55423;SDS011;41294;42.666;23.350;2022-12-22T01:36:59;71.83;;;35.93;;
55423;SDS011;41294;42.666;23.350;2022-12-22T01:39:43;68.80;;;35.30;;
55423;SDS011;41294;42.666;23.350;2022-12-22T01:42:27;71.30;;;35.33;;
55423;SDS011;41294;42.666;23.350;2022-12-22T01:45:28;76.17;;;37.03;;
55423;SDS011;41294;42.666;23.350;2022-12-22T01:48:14;76.57;;;37.60;;
55423;SDS011;41294;42.666;23.350;2022-12-22T01:51:08;79.13;;;37.13;;
55423;SDS011;41294;42.666;23.350;2022-12-22T01:53:57;73.60;;;36.67;;
55423;SDS011;41294;42.666;23.350;2022-12-22T01:56:42;77.17;;;37.77;;
55423;SDS011;41294;42.666;23.350;2022-12-22T01:59:28;73.47;;;38.57;;
55423;SDS011;41294;42.666;23.350;2022-12-22T02:02:12;68.00;;;36.23;;
55423;SDS011;41294;42.666;23.350;2022-12-22T02:04:58;75.27;;;36.03;;
55423;SDS011;41294;42.666;23.350;2022-12-22T02:26:30;73.33;;;36.77;;
55423;SDS011;41294;42.666;23.350;2022-12-22T02:29:17;80.07;;;36.77;;
55423;SDS011;41294;42.666;23.350;2022-12-22T02:32:04;64.70;;;35.50;;
55423;SDS011;41294;42.666;23.350;2022-12-22T02:34:49;70.70;;;34.70;;
55423;SDS011;41294;42.666;23.350;2022-12-22T02:40:55;74.70;;;37.17;;
55423;SDS011;41294;42.666;23.350;2022-12-22T02:49:50;67.60;;;35.50;;
55423;SDS011;41294;42.666;23.350;2022-12-22T02:52:38;68.87;;;35.33;;
55423;SDS011;41294;42.666;23.350;2022-12-22T02:55:25;69.13;;;35.87;;
55423;SDS011;41294;42.666;23.350;2022-12-22T02:58:11;67.77;;;34.27;;
55423;SDS011;41294;42.666;23.350;2022-12-22T03:00:56;75.50;;;33.90;;
55423;SDS011;41294;42.666;23.350;2022-12-22T03:03:41;72.20;;;35.77;;
55423;SDS011;41294;42.666;23.350;2022-12-22T03:06:25;68.50;;;33.20;;
55423;SDS011;41294;42.666;23.350;2022-12-22T03:09:09;64.90;;;32.60;;
55423;SDS011;41294;42.666;23.350;2022-12-22T03:11:53;72.67;;;34.13;;
55423;SDS011;41294;42.666;23.350;2022-12-22T03:14:37;68.87;;;34.80;;
55423;SDS011;41294;42.666;23.350;2022-12-22T03:17:21;60.60;;;34.47;;
55423;SDS011;41294;42.666;23.350;2022-12-22T03:20:05;58.17;;;33.50;;
55423;SDS011;41294;42.666;23.350;2022-12-22T03:22:49;77.20;;;35.00;;
55423;SDS011;41294;42.666;23.350;2022-12-22T03:25:33;73.77;;;34.17;;
55423;SDS011;41294;42.666;23.350;2022-12-22T03:28:18;63.30;;;33.27;;
55423;SDS011;41294;42.666;23.350;2022-12-22T03:30:53;64.30;;;32.80;;
55423;SDS011;41294;42.666;23.350;2022-12-22T03:33:20;65.53;;;34.27;;
55423;SDS011;41294;42.666;23.350;2022-12-22T03:35:46;70.63;;;34.47;;
55423;SDS011;41294;42.666;23.350;2022-12-22T03:38:11;65.53;;;34.93;;
55423;SDS011;41294;42.666;23.350;2022-12-22T03:40:36;64.10;;;34.63;;
55423;SDS011;41294;42.666;23.350;2022-12-22T03:43:02;67.10;;;34.77;;
55423;SDS011;41294;42.666;23.350;2022-12-22T03:45:46;68.57;;;34.90;;
55423;SDS011;41294;42.666;23.350;2022-12-22T03:48:30;83.47;;;37.23;;
55423;SDS011;41294;42.666;23.350;2022-12-22T03:50:55;81.90;;;37.70;;
55423;SDS011;41294;42.666;23.350;2022-12-22T03:53:20;71.30;;;38.13;;
55423;SDS011;41294;42.666;23.350;2022-12-22T03:55:46;76.17;;;37.63;;
55423;SDS011;41294;42.666;23.350;2022-12-22T03:58:11;84.60;;;38.57;;
55423;SDS011;41294;42.666;23.350;2022-12-22T04:00:37;84.47;;;39.47;;
55423;SDS011;41294;42.666;23.350;2022-12-22T04:03:02;75.57;;;40.57;;
55423;SDS011;41294;42.666;23.350;2022-12-22T04:05:27;80.53;;;38.83;;
55423;SDS011;41294;42.666;23.350;2022-12-22T04:07:53;80.30;;;38.77;;
55423;SDS011;41294;42.666;23.350;2022-12-22T04:10:18;79.17;;;38.03;;
55423;SDS011;41294;42.666;23.350;2022-12-22T04:13:02;80.33;;;37.53;;
55423;SDS011;41294;42.666;23.350;2022-12-22T04:15:28;76.67;;;38.80;;
55423;SDS011;41294;42.666;23.350;2022-12-22T04:17:56;76.97;;;38.37;;
55423;SDS011;41294;42.666;23.350;2022-12-22T04:20:23;66.97;;;38.50;;
55423;SDS011;41294;42.666;23.350;2022-12-22T04:22:51;74.40;;;38.47;;
55423;SDS011;41294;42.666;23.350;2022-12-22T04:25:17;79.40;;;38.43;;
55423;SDS011;41294;42.666;23.350;2022-12-22T04:27:43;70.70;;;38.40;;
55423;SDS011;41294;42.666;23.350;2022-12-22T04:30:08;81.20;;;39.03;;
55423;SDS011;41294;42.666;23.350;2022-12-22T04:32:34;78.03;;;40.37;;
55423;SDS011;41294;42.666;23.350;2022-12-22T04:35:00;75.63;;;38.03;;
55423;SDS011;41294;42.666;23.350;2022-12-22T04:37:25;81.37;;;39.07;;
55423;SDS011;41294;42.666;23.350;2022-12-22T04:39:50;72.80;;;36.97;;
55423;SDS011;41294;42.666;23.350;2022-12-22T04:42:16;90.20;;;40.70;;
55423;SDS011;41294;42.666;23.350;2022-12-22T04:44:41;87.60;;;40.47;;
55423;SDS011;41294;42.666;23.350;2022-12-22T04:47:06;86.10;;;42.17;;
55423;SDS011;41294;42.666;23.350;2022-12-22T04:49:32;76.07;;;40.70;;
55423;SDS011;41294;42.666;23.350;2022-12-22T04:51:57;78.77;;;39.23;;
55423;SDS011;41294;42.666;23.350;2022-12-22T04:54:23;78.13;;;40.30;;
55423;SDS011;41294;42.666;23.350;2022-12-22T04:56:49;85.90;;;41.27;;
55423;SDS011;41294;42.666;23.350;2022-12-22T04:59:14;77.53;;;38.60;;
55423;SDS011;41294;42.666;23.350;2022-12-22T05:01:39;80.77;;;40.97;;
55423;SDS011;41294;42.666;23.350;2022-12-22T05:04:05;80.17;;;42.27;;
55423;SDS011;41294;42.666;23.350;2022-12-22T05:06:30;83.73;;;40.90;;
55423;SDS011;41294;42.666;23.350;2022-12-22T05:08:56;82.70;;;41.33;;
55423;SDS011;41294;42.666;23.350;2022-12-22T05:11:21;93.20;;;43.07;;
55423;SDS011;41294;42.666;23.350;2022-12-22T05:13:46;89.40;;;42.93;;
55423;SDS011;41294;42.666;23.350;2022-12-22T05:16:13;88.30;;;44.40;;
55423;SDS011;41294;42.666;23.350;2022-12-22T05:18:40;101.03;;;45.23;;
55423;SDS011;41294;42.666;23.350;2022-12-22T05:21:13;90.07;;;45.20;;
55423;SDS011;41294;42.666;23.350;2022-12-22T05:23:41;86.30;;;42.93;;
55423;SDS011;41294;42.666;23.350;2022-12-22T05:26:06;87.17;;;44.13;;
55423;SDS011;41294;42.666;23.350;2022-12-22T05:28:33;91.47;;;42.53;;
55423;SDS011;41294;42.666;23.350;2022-12-22T05:31:06;76.67;;;39.97;;
55423;SDS011;41294;42.666;23.350;2022-12-22T05:33:33;81.27;;;40.20;;
55423;SDS011;41294;42.666;23.350;2022-12-22T05:35:59;82.23;;;41.80;;
55423;SDS011;41294;42.666;23.350;2022-12-22T05:38:24;78.93;;;40.43;;
55423;SDS011;41294;42.666;23.350;2022-12-22T05:40:49;78.87;;;41.03;;
55423;SDS011;41294;42.666;23.350;2022-12-22T05:43:15;77.33;;;39.77;;
55423;SDS011;41294;42.666;23.350;2022-12-22T05:45:42;80.27;;;41.60;;
55423;SDS011;41294;42.666;23.350;2022-12-22T05:48:09;77.97;;;41.13;;
55423;SDS011;41294;42.666;23.350;2022-12-22T05:50:35;87.73;;;42.83;;
55423;SDS011;41294;42.666;23.350;2022-12-22T05:53:00;88.53;;;44.27;;
55423;SDS011;41294;42.666;23.350;2022-12-22T05:55:26;97.43;;;44.30;;
55423;SDS011;41294;42.666;23.350;2022-12-22T05:57:51;72.53;;;41.27;;
55423;SDS011;41294;42.666;23.350;2022-12-22T06:00:17;94.40;;;42.63;;
55423;SDS011;41294;42.666;23.350;2022-12-22T06:02:43;89.33;;;44.57;;
55423;SDS011;41294;42.666;23.350;2022-12-22T06:05:09;84.93;;;43.47;;
55423;SDS011;41294;42.666;23.350;2022-12-22T06:07:36;82.87;;;41.20;;
55423;SDS011;41294;42.666;23.350;2022-12-22T06:10:02;86.03;;;42.17;;
55423;SDS011;41294;42.666;23.350;2022-12-22T06:12:29;83.23;;;41.57;;
55423;SDS011;41294;42.666;23.350;2022-12-22T06:14:55;89.53;;;42.20;;
55423;SDS011;41294;42.666;23.350;2022-12-22T06:17:20;86.17;;;43.93;;
55423;SDS011;41294;42.666;23.350;2022-12-22T06:19:45;94.07;;;42.90;;
55423;SDS011;41294;42.666;23.350;2022-12-22T06:22:11;84.07;;;43.87;;
55423;SDS011;41294;42.666;23.350;2022-12-22T06:24:36;91.73;;;43.10;;
55423;SDS011;41294;42.666;23.350;2022-12-22T06:27:01;100.97;;;46.07;;
55423;SDS011;41294;42.666;23.350;2022-12-22T06:29:27;91.33;;;45.10;;
55423;SDS011;41294;42.666;23.350;2022-12-22T06:31:52;90.60;;;44.53;;
55423;SDS011;41294;42.666;23.350;2022-12-22T06:34:18;87.67;;;45.23;;
55423;SDS011;41294;42.666;23.350;2022-12-22T06:36:44;91.23;;;45.77;;
55423;SDS011;41294;42.666;23.350;2022-12-22T06:39:10;96.43;;;47.10;;
55423;SDS011;41294;42.666;23.350;2022-12-22T06:41:36;97.13;;;47.20;;
55423;SDS011;41294;42.666;23.350;2022-12-22T06:44:19;93.87;;;48.70;;
55423;SDS011;41294;42.666;23.350;2022-12-22T06:46:45;93.97;;;49.93;;
55423;SDS011;41294;42.666;23.350;2022-12-22T06:49:10;88.67;;;44.90;;
55423;SDS011;41294;42.666;23.350;2022-12-22T06:51:36;84.33;;;46.70;;
55423;SDS011;41294;42.666;23.350;2022-12-22T06:54:01;103.20;;;46.77;;
55423;SDS011;41294;42.666;23.350;2022-12-22T06:56:26;106.10;;;48.03;;
55423;SDS011;41294;42.666;23.350;2022-12-22T06:58:52;84.40;;;47.57;;
55423;SDS011;41294;42.666;23.350;2022-12-22T07:01:17;84.63;;;45.63;;
55423;SDS011;41294;42.666;23.350;2022-12-22T07:03:42;90.97;;;46.50;;
55423;SDS011;41294;42.666;23.350;2022-12-22T07:06:08;88.80;;;46.10;;
55423;SDS011;41294;42.666;23.350;2022-12-22T07:08:34;79.60;;;46.27;;
55423;SDS011;41294;42.666;23.350;2022-12-22T07:10:59;78.33;;;45.87;;
55423;SDS011;41294;42.666;23.350;2022-12-22T07:13:29;86.20;;;47.13;;
55423;SDS011;41294;42.666;23.350;2022-12-22T07:15:58;88.53;;;46.97;;
55423;SDS011;41294;42.666;23.350;2022-12-22T07:18:24;78.87;;;44.83;;
55423;SDS011;41294;42.666;23.350;2022-12-22T07:20:50;80.40;;;43.47;;
55423;SDS011;41294;42.666;23.350;2022-12-22T07:23:15;81.97;;;45.40;;
55423;SDS011;41294;42.666;23.350;2022-12-22T07:25:41;76.93;;;43.40;;
55423;SDS011;41294;42.666;23.350;2022-12-22T07:28:06;68.33;;;40.17;;
55423;SDS011;41294;42.666;23.350;2022-12-22T07:30:32;63.87;;;36.97;;
55423;SDS011;41294;42.666;23.350;2022-12-22T07:33:00;71.27;;;37.00;;
55423;SDS011;41294;42.666;23.350;2022-12-22T07:35:44;60.13;;;37.03;;
55423;SDS011;41294;42.666;23.350;2022-12-22T07:38:10;80.13;;;38.83;;
55423;SDS011;41294;42.666;23.350;2022-12-22T07:40:35;69.07;;;36.77;;
55423;SDS011;41294;42.666;23.350;2022-12-22T07:43:01;65.10;;;38.17;;
55423;SDS011;41294;42.666;23.350;2022-12-22T07:45:26;73.90;;;38.53;;
55423;SDS011;41294;42.666;23.350;2022-12-22T07:48:01;74.23;;;39.93;;
55423;SDS011;41294;42.666;23.350;2022-12-22T07:50:48;66.30;;;36.67;;
55423;SDS011;41294;42.666;23.350;2022-12-22T07:53:13;57.43;;;34.00;;
55423;SDS011;41294;42.666;23.350;2022-12-22T07:55:39;52.30;;;33.23;;
55423;SDS011;41294;42.666;23.350;2022-12-22T07:58:04;71.13;;;39.77;;
55423;SDS011;41294;42.666;23.350;2022-12-22T08:00:29;65.00;;;37.43;;
55423;SDS011;41294;42.666;23.350;2022-12-22T08:02:55;71.70;;;38.50;;
55423;SDS011;41294;42.666;23.350;2022-12-22T08:05:22;61.30;;;36.77;;
55423;SDS011;41294;42.666;23.350;2022-12-22T08:07:49;56.47;;;33.40;;
55423;SDS011;41294;42.666;23.350;2022-12-22T08:10:16;58.77;;;32.27;;
55423;SDS011;41294;42.666;23.350;2022-12-22T08:12:43;47.80;;;31.90;;
55423;SDS011;41294;42.666;23.350;2022-12-22T08:15:09;50.37;;;29.87;;
55423;SDS011;41294;42.666;23.350;2022-12-22T08:17:35;57.60;;;32.53;;
55423;SDS011;41294;42.666;23.350;2022-12-22T08:20:00;45.77;;;30.03;;
55423;SDS011;41294;42.666;23.350;2022-12-22T08:22:26;58.17;;;32.77;;
55423;SDS011;41294;42.666;23.350;2022-12-22T08:24:54;57.03;;;31.43;;
55423;SDS011;41294;42.666;23.350;2022-12-22T08:27:22;47.43;;;28.90;;
55423;SDS011;41294;42.666;23.350;2022-12-22T08:30:09;44.67;;;26.03;;
55423;SDS011;41294;42.666;23.350;2022-12-22T08:32:36;50.03;;;26.33;;
55423;SDS011;41294;42.666;23.350;2022-12-22T08:35:03;44.10;;;26.87;;
55423;SDS011;41294;42.666;23.350;2022-12-22T08:37:29;41.20;;;25.10;;
55423;SDS011;41294;42.666;23.350;2022-12-22T08:40:00;40.17;;;25.83;;
55423;SDS011;41294;42.666;23.350;2022-12-22T08:42:28;45.20;;;28.30;;
55423;SDS011;41294;42.666;23.350;2022-12-22T08:44:54;49.20;;;27.87;;
55423;SDS011;41294;42.666;23.350;2022-12-22T08:47:20;51.03;;;29.60;;
55423;SDS011;41294;42.666;23.350;2022-12-22T08:49:46;45.40;;;27.30;;
55423;SDS011;41294;42.666;23.350;2022-12-22T08:52:12;43.00;;;26.20;;
55423;SDS011;41294;42.666;23.350;2022-12-22T08:54:38;44.40;;;25.57;;
55423;SDS011;41294;42.666;23.350;2022-12-22T08:57:03;49.63;;;29.10;;
55423;SDS011;41294;42.666;23.350;2022-12-22T08:59:29;46.40;;;26.13;;
55423;SDS011;41294;42.666;23.350;2022-12-22T09:01:54;47.07;;;26.93;;
55423;SDS011;41294;42.666;23.350;2022-12-22T09:04:20;43.40;;;25.67;;
55423;SDS011;41294;42.666;23.350;2022-12-22T09:06:47;54.07;;;29.97;;
55423;SDS011;41294;42.666;23.350;2022-12-22T09:09:15;47.90;;;26.37;;
55423;SDS011;41294;42.666;23.350;2022-12-22T09:11:40;51.00;;;26.83;;
55423;SDS011;41294;42.666;23.350;2022-12-22T09:14:08;49.50;;;28.00;;
55423;SDS011;41294;42.666;23.350;2022-12-22T09:16:35;46.00;;;27.93;;
55423;SDS011;41294;42.666;23.350;2022-12-22T09:19:01;50.97;;;28.47;;
55423;SDS011;41294;42.666;23.350;2022-12-22T09:21:28;48.20;;;27.50;;
55423;SDS011;41294;42.666;23.350;2022-12-22T09:23:54;48.23;;;28.13;;
55423;SDS011;41294;42.666;23.350;2022-12-22T09:26:21;54.10;;;28.13;;
55423;SDS011;41294;42.666;23.350;2022-12-22T09:28:48;43.73;;;26.93;;
55423;SDS011;41294;42.666;23.350;2022-12-22T09:31:13;44.70;;;27.30;;
55423;SDS011;41294;42.666;23.350;2022-12-22T09:33:39;45.50;;;28.53;;
55423;SDS011;41294;42.666;23.350;2022-12-22T09:36:05;46.30;;;26.20;;
55423;SDS011;41294;42.666;23.350;2022-12-22T09:38:32;45.17;;;28.13;;
55423;SDS011;41294;42.666;23.350;2022-12-22T09:40:57;51.73;;;28.17;;
55423;SDS011;41294;42.666;23.350;2022-12-22T09:43:29;51.43;;;27.43;;
55423;SDS011;41294;42.666;23.350;2022-12-22T09:45:55;46.43;;;26.53;;
55423;SDS011;41294;42.666;23.350;2022-12-22T09:48:22;42.63;;;27.63;;
55423;SDS011;41294;42.666;23.350;2022-12-22T09:50:54;49.43;;;28.27;;
55423;SDS011;41294;42.666;23.350;2022-12-22T09:53:20;43.87;;;27.57;;
55423;SDS011;41294;42.666;23.350;2022-12-22T09:55:48;40.93;;;27.20;;
55423;SDS011;41294;42.666;23.350;2022-12-22T09:58:24;46.00;;;27.67;;
55423;SDS011;41294;42.666;23.350;2022-12-22T10:00:56;50.27;;;27.63;;
55423;SDS011;41294;42.666;23.350;2022-12-22T10:09:13;41.07;;;25.73;;
55423;SDS011;41294;42.666;23.350;2022-12-22T10:11:40;43.23;;;24.73;;
55423;SDS011;41294;42.666;23.350;2022-12-22T10:14:14;43.90;;;25.33;;
55423;SDS011;41294;42.666;23.350;2022-12-22T10:16:40;43.27;;;25.30;;
55423;SDS011;41294;42.666;23.350;2022-12-22T10:19:06;43.53;;;25.43;;
55423;SDS011;41294;42.666;23.350;2022-12-22T10:21:34;42.13;;;24.83;;
55423;SDS011;41294;42.666;23.350;2022-12-22T10:23:59;41.03;;;24.33;;
55423;SDS011;41294;42.666;23.350;2022-12-22T10:26:28;40.70;;;24.93;;
55423;SDS011;41294;42.666;23.350;2022-12-22T10:29:04;42.70;;;23.67;;
55423;SDS011;41294;42.666;23.350;2022-12-22T10:31:34;41.33;;;24.23;;
55423;SDS011;41294;42.666;23.350;2022-12-22T10:34:14;39.30;;;24.27;;
55423;SDS011;41294;42.666;23.350;2022-12-22T10:36:41;36.00;;;24.60;;
55423;SDS011;41294;42.666;23.350;2022-12-22T10:39:12;45.87;;;23.93;;
55423;SDS011;41294;42.666;23.350;2022-12-22T10:41:55;40.17;;;24.23;;
55423;SDS011;41294;42.666;23.350;2022-12-22T10:44:29;43.50;;;25.10;;
55423;SDS011;41294;42.666;23.350;2022-12-22T10:46:59;43.80;;;24.13;;
55423;SDS011;41294;42.666;23.350;2022-12-22T10:49:39;46.67;;;23.90;;
55423;SDS011;41294;42.666;23.350;2022-12-22T10:54:47;41.63;;;24.23;;
55423;SDS011;41294;42.666;23.350;2022-12-22T10:59:55;47.43;;;25.23;;
55423;SDS011;41294;42.666;23.350;2022-12-22T11:02:24;38.87;;;24.30;;
55423;SDS011;41294;42.666;23.350;2022-12-22T11:04:54;41.93;;;25.27;;
55423;SDS011;41294;42.666;23.350;2022-12-22T11:07:27;45.70;;;25.97;;
55423;SDS011;41294;42.666;23.350;2022-12-22T11:09:57;47.33;;;25.70;;
55423;SDS011;41294;42.666;23.350;2022-12-22T11:12:36;45.47;;;25.27;;
55423;SDS011;41294;42.666;23.350;2022-12-22T11:15:20;45.60;;;25.90;;
55423;SDS011;41294;42.666;23.350;2022-12-22T11:25:59;47.57;;;26.33;;
55423;SDS011;41294;42.666;23.350;2022-12-22T11:31:54;42.23;;;24.60;;
55423;SDS011;41294;42.666;23.350;2022-12-22T11:34:44;47.00;;;26.23;;
55423;SDS011;41294;42.666;23.350;2022-12-22T11:39:44;77.53;;;40.33;;
55423;SDS011;41294;42.666;23.350;2022-12-22T11:47:59;42.93;;;25.90;;
55423;SDS011;41294;42.666;23.350;2022-12-22T11:50:41;47.07;;;26.47;;
55423;SDS011;41294;42.666;23.350;2022-12-22T12:01:52;46.13;;;25.87;;
55423;SDS011;41294;42.666;23.350;2022-12-22T12:20:56;44.10;;;26.83;;
55423;SDS011;41294;42.666;23.350;2022-12-22T12:26:21;49.80;;;28.63;;
55423;SDS011;41294;42.666;23.350;2022-12-22T12:29:12;43.77;;;27.43;;
55423;SDS011;41294;42.666;23.350;2022-12-22T12:35:02;47.63;;;27.20;;
55423;SDS011;41294;42.666;23.350;2022-12-22T12:37:37;44.80;;;27.40;;
55423;SDS011;41294;42.666;23.350;2022-12-22T12:40:16;50.93;;;28.20;;
55423;SDS011;41294;42.666;23.350;2022-12-22T12:42:45;44.20;;;27.23;;
55423;SDS011;41294;42.666;23.350;2022-12-22T12:45:31;45.90;;;27.53;;
55423;SDS011;41294;42.666;23.350;2022-12-22T12:50:46;51.33;;;26.97;;
55423;SDS011;41294;42.666;23.350;2022-12-22T12:53:12;49.80;;;28.20;;
55423;SDS011;41294;42.666;23.350;2022-12-22T12:58:03;47.10;;;27.73;;
55423;SDS011;41294;42.666;23.350;2022-12-22T13:02:59;44.43;;;28.20;;
55423;SDS011;41294;42.666;23.350;2022-12-22T13:05:28;46.53;;;27.40;;
55423;SDS011;41294;42.666;23.350;2022-12-22T13:08:10;48.37;;;28.07;;
55423;SDS011;41294;42.666;23.350;2022-12-22T13:10:43;45.30;;;28.00;;
55423;SDS011;41294;42.666;23.350;2022-12-22T13:20:59;49.73;;;28.67;;
55423;SDS011;41294;42.666;23.350;2022-12-22T13:23:44;46.80;;;29.33;;
55423;SDS011;41294;42.666;23.350;2022-12-22T13:26:15;45.83;;;27.97;;
55423;SDS011;41294;42.666;23.350;2022-12-22T13:28:52;48.73;;;29.53;;
55423;SDS011;41294;42.666;23.350;2022-12-22T13:36:58;51.30;;;28.60;;
55423;SDS011;41294;42.666;23.350;2022-12-22T13:39:28;49.77;;;29.27;;
55423;SDS011;41294;42.666;23.350;2022-12-22T13:41:53;51.27;;;28.60;;
55423;SDS011;41294;42.666;23.350;2022-12-22T13:44:30;48.70;;;29.70;;
55423;SDS011;41294;42.666;23.350;2022-12-22T13:47:10;49.80;;;27.93;;
55423;SDS011;41294;42.666;23.350;2022-12-22T13:49:39;51.67;;;28.30;;
55423;SDS011;41294;42.666;23.350;2022-12-22T13:52:10;49.27;;;28.53;;
55423;SDS011;41294;42.666;23.350;2022-12-22T13:54:39;41.40;;;26.90;;
55423;SDS011;41294;42.666;23.350;2022-12-22T13:57:27;54.40;;;30.27;;
55423;SDS011;41294;42.666;23.350;2022-12-22T13:59:52;57.13;;;29.87;;
55423;SDS011;41294;42.666;23.350;2022-12-22T14:02:19;60.23;;;32.37;;
55423;SDS011;41294;42.666;23.350;2022-12-22T14:05:03;50.57;;;29.53;;
55423;SDS011;41294;42.666;23.350;2022-12-22T14:07:33;52.23;;;27.77;;
55423;SDS011;41294;42.666;23.350;2022-12-22T14:09:58;52.27;;;29.80;;
55423;SDS011;41294;42.666;23.350;2022-12-22T14:12:25;53.50;;;28.33;;
55423;SDS011;41294;42.666;23.350;2022-12-22T14:14:54;46.50;;;28.00;;
55423;SDS011;41294;42.666;23.350;2022-12-22T14:17:25;52.43;;;27.37;;
55423;SDS011;41294;42.666;23.350;2022-12-22T14:19:55;48.67;;;27.90;;
55423;SDS011;41294;42.666;23.350;2022-12-22T14:22:32;54.83;;;29.53;;
55423;SDS011;41294;42.666;23.350;2022-12-22T14:25:05;60.93;;;29.03;;
55423;SDS011;41294;42.666;23.350;2022-12-22T14:27:45;51.20;;;28.27;;
55423;SDS011;41294;42.666;23.350;2022-12-22T14:30:33;56.30;;;29.07;;
55423;SDS011;41294;42.666;23.350;2022-12-22T14:35:47;47.03;;;26.47;;
55423;SDS011;41294;42.666;23.350;2022-12-22T14:38:15;55.53;;;28.00;;
55423;SDS011;41294;42.666;23.350;2022-12-22T14:40:44;55.43;;;28.47;;
55423;SDS011;41294;42.666;23.350;2022-12-22T14:45:41;47.50;;;28.73;;
55423;SDS011;41294;42.666;23.350;2022-12-22T14:48:15;58.83;;;29.73;;
55423;SDS011;41294;42.666;23.350;2022-12-22T14:50:47;54.00;;;28.70;;
55423;SDS011;41294;42.666;23.350;2022-12-22T14:53:14;53.20;;;27.53;;
55423;SDS011;41294;42.666;23.350;2022-12-22T14:55:48;50.83;;;29.43;;
55423;SDS011;41294;42.666;23.350;2022-12-22T14:58:18;59.63;;;29.30;;
55423;SDS011;41294;42.666;23.350;2022-12-22T15:03:40;54.77;;;30.23;;
55423;SDS011;41294;42.666;23.350;2022-12-22T15:08:50;55.30;;;29.07;;
55423;SDS011;41294;42.666;23.350;2022-12-22T15:11:17;46.00;;;28.57;;
55423;SDS011;41294;42.666;23.350;2022-12-22T15:13:45;69.57;;;30.60;;
55423;SDS011;41294;42.666;23.350;2022-12-22T15:16:14;56.27;;;28.87;;
55423;SDS011;41294;42.666;23.350;2022-12-22T15:18:42;51.77;;;29.60;;
55423;SDS011;41294;42.666;23.350;2022-12-22T15:21:08;52.80;;;30.37;;
55423;SDS011;41294;42.666;23.350;2022-12-22T15:23:38;59.37;;;31.00;;
55423;SDS011;41294;42.666;23.350;2022-12-22T15:26:03;54.10;;;29.00;;
55423;SDS011;41294;42.666;23.350;2022-12-22T15:28:29;59.40;;;30.40;;
55423;SDS011;41294;42.666;23.350;2022-12-22T15:30:55;60.37;;;30.63;;
55423;SDS011;41294;42.666;23.350;2022-12-22T15:33:20;53.80;;;30.10;;
55423;SDS011;41294;42.666;23.350;2022-12-22T15:35:46;60.40;;;30.07;;
55423;SDS011;41294;42.666;23.350;2022-12-22T15:38:12;67.03;;;32.30;;
55423;SDS011;41294;42.666;23.350;2022-12-22T15:40:42;65.23;;;31.27;;
55423;SDS011;41294;42.666;23.350;2022-12-22T15:43:08;65.17;;;32.00;;
55423;SDS011;41294;42.666;23.350;2022-12-22T15:45:34;58.73;;;31.50;;
55423;SDS011;41294;42.666;23.350;2022-12-22T15:48:00;63.37;;;31.60;;
55423;SDS011;41294;42.666;23.350;2022-12-22T15:50:36;56.40;;;30.80;;
55423;SDS011;41294;42.666;23.350;2022-12-22T15:53:05;72.37;;;32.07;;
55423;SDS011;41294;42.666;23.350;2022-12-22T15:55:33;61.17;;;30.90;;
55423;SDS011;41294;42.666;23.350;2022-12-22T15:58:04;66.97;;;32.13;;
55423;SDS011;41294;42.666;23.350;2022-12-22T16:00:31;62.53;;;31.90;;
55423;SDS011;41294;42.666;23.350;2022-12-22T16:02:57;65.10;;;30.80;;
55423;SDS011;41294;42.666;23.350;2022-12-22T16:05:22;62.57;;;29.93;;
55423;SDS011;41294;42.666;23.350;2022-12-22T16:07:48;69.30;;;32.13;;
55423;SDS011;41294;42.666;23.350;2022-12-22T16:10:22;64.37;;;32.23;;
55423;SDS011;41294;42.666;23.350;2022-12-22T16:12:50;62.77;;;31.00;;
55423;SDS011;41294;42.666;23.350;2022-12-22T16:15:31;62.70;;;31.50;;
55423;SDS011;41294;42.666;23.350;2022-12-22T16:17:58;58.47;;;31.50;;
55423;SDS011;41294;42.666;23.350;2022-12-22T16:20:25;64.37;;;33.30;;
55423;SDS011;41294;42.666;23.350;2022-12-22T16:22:53;61.10;;;30.87;;
55423;SDS011;41294;42.666;23.350;2022-12-22T16:25:20;56.03;;;31.40;;
55423;SDS011;41294;42.666;23.350;2022-12-22T16:27:51;65.90;;;33.80;;
55423;SDS011;41294;42.666;23.350;2022-12-22T16:30:24;60.57;;;32.00;;
55423;SDS011;41294;42.666;23.350;2022-12-22T16:32:52;70.90;;;33.10;;
55423;SDS011;41294;42.666;23.350;2022-12-22T16:35:19;60.67;;;32.27;;
55423;SDS011;41294;42.666;23.350;2022-12-22T16:37:49;64.00;;;33.73;;